sensor_id;sensor_type;location;lat;lon;timestamp;temperature;humidity
5280;DHT22;2663;53.588;10.010;2024-02-26T00:00:37;7.20;99.90
5280;DHT22;2663;53.588;10.010;2024-02-26T00:03:05;7.10;99.90
5280;DHT22;2663;53.588;10.010;2024-02-26T00:05:32;7.10;99.90
5280;DHT22;2663;53.588;10.010;2024-02-26T00:07:58;7.10;99.90
5280;DHT22;2663;53.588;10.010;2024-02-26T00:10:29;7.10;99.90
5280;DHT22;2663;53.588;10.010;2024-02-26T00:12:56;7.00;99.90
5280;DHT22;2663;53.588;10.010;2024-02-26T00:15:23;7.00;99.90
5280;DHT22;2663;53.588;10.010;2024-02-26T00:17:51;7.00;99.90
5280;DHT22;2663;53.588;10.010;2024-02-26T00:20:18;7.00;99.90
5280;DHT22;2663;53.588;10.010;2024-02-26T00:22:44;6.90;99.90
5280;DHT22;2663;53.588;10.010;2024-02-26T00:25:11;6.90;99.90
5280;DHT22;2663;53.588;10.010;2024-02-26T00:27:39;6.90;99.90
5280;DHT22;2663;53.588;10.010;2024-02-26T00:30:08;6.80;99.90
5280;DHT22;2663;53.588;10.010;2024-02-26T00:32:35;6.80;99.90
5280;DHT22;2663;53.588;10.010;2024-02-26T00:35:02;6.80;99.90
5280;DHT22;2663;53.588;10.010;2024-02-26T00:37:29;6.80;99.90
5280;DHT22;2663;53.588;10.010;2024-02-26T00:39:55;6.80;99.90
5280;DHT22;2663;53.588;10.010;2024-02-26T00:42:22;6.70;99.90
5280;DHT22;2663;53.588;10.010;2024-02-26T00:44:49;6.60;99.90
5280;DHT22;2663;53.588;10.010;2024-02-26T00:47:16;6.60;99.90
5280;DHT22;2663;53.588;10.010;2024-02-26T00:49:43;6.60;99.90
5280;DHT22;2663;53.588;10.010;2024-02-26T00:52:10;6.60;99.90
5280;DHT22;2663;53.588;10.010;2024-02-26T00:54:36;6.50;99.90
5280;DHT22;2663;53.588;10.010;2024-02-26T00:57:03;6.50;99.90
5280;DHT22;2663;53.588;10.010;2024-02-26T00:59:30;6.50;99.90
5280;DHT22;2663;53.588;10.010;2024-02-26T01:01:56;6.40;99.90
5280;DHT22;2663;53.588;10.010;2024-02-26T01:04:25;6.40;99.90
5280;DHT22;2663;53.588;10.010;2024-02-26T01:06:52;6.30;99.90
5280;DHT22;2663;53.588;10.010;2024-02-26T01:09:19;6.30;99.90
5280;DHT22;2663;53.588;10.010;2024-02-26T01:11:45;6.30;99.90
5280;DHT22;2663;53.588;10.010;2024-02-26T01:14:13;6.30;99.90
5280;DHT22;2663;53.588;10.010;2024-02-26T01:16:41;6.20;99.90
5280;DHT22;2663;53.588;10.010;2024-02-26T01:19:08;6.20;99.90
5280;DHT22;2663;53.588;10.010;2024-02-26T01:21:35;6.10;99.90
5280;DHT22;2663;53.588;10.010;2024-02-26T01:24:02;6.20;99.90
5280;DHT22;2663;53.588;10.010;2024-02-26T01:26:28;6.10;99.90
5280;DHT22;2663;53.588;10.010;2024-02-26T01:28:55;6.10;99.90
5280;DHT22;2663;53.588;10.010;2024-02-26T01:31:22;6.10;99.90
5280;DHT22;2663;53.588;10.010;2024-02-26T01:33:49;6.10;99.90
5280;DHT22;2663;53.588;10.010;2024-02-26T01:36:16;6.10;99.90
5280;DHT22;2663;53.588;10.010;2024-02-26T01:38:42;6.10;99.90
5280;DHT22;2663;53.588;10.010;2024-02-26T01:41:09;6.00;99.90
5280;DHT22;2663;53.588;10.010;2024-02-26T01:43:36;6.00;99.90
5280;DHT22;2663;53.588;10.010;2024-02-26T01:46:03;5.90;99.90
5280;DHT22;2663;53.588;10.010;2024-02-26T01:48:30;5.90;99.90
5280;DHT22;2663;53.588;10.010;2024-02-26T01:50:57;6.00;99.90
5280;DHT22;2663;53.588;10.010;2024-02-26T01:53:24;5.90;99.90
5280;DHT22;2663;53.588;10.010;2024-02-26T01:55:51;5.90;99.90
5280;DHT22;2663;53.588;10.010;2024-02-26T01:58:18;5.90;99.90
5280;DHT22;2663;53.588;10.010;2024-02-26T02:00:44;5.90;99.90
5280;DHT22;2663;53.588;10.010;2024-02-26T02:03:12;4.30;99.90
5280;DHT22;2663;53.588;10.010;2024-02-26T02:05:39;5.80;99.90
5280;DHT22;2663;53.588;10.010;2024-02-26T02:08:10;5.80;99.90
5280;DHT22;2663;53.588;10.010;2024-02-26T02:10:38;4.40;99.90
5280;DHT22;2663;53.588;10.010;2024-02-26T02:13:05;5.80;99.90
5280;DHT22;2663;53.588;10.010;2024-02-26T02:15:32;5.70;99.90
5280;DHT22;2663;53.588;10.010;2024-02-26T02:17:59;5.70;99.90
5280;DHT22;2663;53.588;10.010;2024-02-26T02:20:34;5.70;99.90
5280;DHT22;2663;53.588;10.010;2024-02-26T02:23:02;5.70;99.90
5280;DHT22;2663;53.588;10.010;2024-02-26T02:25:29;5.70;99.90
5280;DHT22;2663;53.588;10.010;2024-02-26T02:27:55;5.70;99.90
5280;DHT22;2663;53.588;10.010;2024-02-26T02:30:26;5.70;99.90
5280;DHT22;2663;53.588;10.010;2024-02-26T02:32:55;5.80;99.90
5280;DHT22;2663;53.588;10.010;2024-02-26T02:35:23;5.70;99.90
5280;DHT22;2663;53.588;10.010;2024-02-26T02:37:52;5.70;99.90
5280;DHT22;2663;53.588;10.010;2024-02-26T02:40:19;5.70;99.90
5280;DHT22;2663;53.588;10.010;2024-02-26T02:42:46;5.70;99.90
5280;DHT22;2663;53.588;10.010;2024-02-26T02:45:12;5.70;99.90
5280;DHT22;2663;53.588;10.010;2024-02-26T02:47:39;5.70;99.90
5280;DHT22;2663;53.588;10.010;2024-02-26T02:50:06;5.70;99.90
5280;DHT22;2663;53.588;10.010;2024-02-26T02:52:33;5.70;99.90
5280;DHT22;2663;53.588;10.010;2024-02-26T02:55:00;5.70;99.90
5280;DHT22;2663;53.588;10.010;2024-02-26T02:57:27;5.60;99.90
5280;DHT22;2663;53.588;10.010;2024-02-26T02:59:54;5.60;99.90
5280;DHT22;2663;53.588;10.010;2024-02-26T03:02:21;5.60;99.90
5280;DHT22;2663;53.588;10.010;2024-02-26T03:04:47;5.60;99.90
5280;DHT22;2663;53.588;10.010;2024-02-26T03:07:14;5.60;99.90
5280;DHT22;2663;53.588;10.010;2024-02-26T03:09:41;5.60;99.90
5280;DHT22;2663;53.588;10.010;2024-02-26T03:12:08;5.60;99.90
5280;DHT22;2663;53.588;10.010;2024-02-26T03:14:35;5.50;99.90
5280;DHT22;2663;53.588;10.010;2024-02-26T03:17:01;5.50;99.90
5280;DHT22;2663;53.588;10.010;2024-02-26T03:19:28;5.50;99.90
5280;DHT22;2663;53.588;10.010;2024-02-26T03:21:55;5.40;99.90
5280;DHT22;2663;53.588;10.010;2024-02-26T03:24:21;5.40;99.90
5280;DHT22;2663;53.588;10.010;2024-02-26T03:26:48;5.50;99.90
5280;DHT22;2663;53.588;10.010;2024-02-26T03:29:15;5.50;99.90
5280;DHT22;2663;53.588;10.010;2024-02-26T03:31:42;5.50;99.90
5280;DHT22;2663;53.588;10.010;2024-02-26T03:34:08;5.30;99.90
5280;DHT22;2663;53.588;10.010;2024-02-26T03:36:35;5.50;99.90
5280;DHT22;2663;53.588;10.010;2024-02-26T03:39:02;5.00;99.90
5280;DHT22;2663;53.588;10.010;2024-02-26T03:41:34;5.60;99.90
5280;DHT22;2663;53.588;10.010;2024-02-26T03:44:01;5.60;99.90
5280;DHT22;2663;53.588;10.010;2024-02-26T03:46:28;5.60;99.90
5280;DHT22;2663;53.588;10.010;2024-02-26T03:48:55;5.50;99.90
5280;DHT22;2663;53.588;10.010;2024-02-26T03:51:22;5.50;99.90
5280;DHT22;2663;53.588;10.010;2024-02-26T03:53:49;5.50;99.90
5280;DHT22;2663;53.588;10.010;2024-02-26T03:56:16;5.50;99.90
5280;DHT22;2663;53.588;10.010;2024-02-26T03:58:42;5.40;99.90
5280;DHT22;2663;53.588;10.010;2024-02-26T04:01:09;5.40;99.90
5280;DHT22;2663;53.588;10.010;2024-02-26T04:03:36;5.40;99.90
5280;DHT22;2663;53.588;10.010;2024-02-26T04:06:03;5.40;99.90
5280;DHT22;2663;53.588;10.010;2024-02-26T04:08:30;5.40;99.90
5280;DHT22;2663;53.588;10.010;2024-02-26T04:10:57;5.40;99.90
5280;DHT22;2663;53.588;10.010;2024-02-26T04:13:24;5.30;99.90
5280;DHT22;2663;53.588;10.010;2024-02-26T04:15:51;5.30;99.90
5280;DHT22;2663;53.588;10.010;2024-02-26T04:18:18;5.40;99.90
5280;DHT22;2663;53.588;10.010;2024-02-26T04:20:44;5.40;99.90
5280;DHT22;2663;53.588;10.010;2024-02-26T04:23:11;5.40;99.90
5280;DHT22;2663;53.588;10.010;2024-02-26T04:25:38;5.30;99.90
5280;DHT22;2663;53.588;10.010;2024-02-26T04:28:05;5.30;99.90
5280;DHT22;2663;53.588;10.010;2024-02-26T04:30:31;5.40;99.90
5280;DHT22;2663;53.588;10.010;2024-02-26T04:32:58;5.40;99.90
5280;DHT22;2663;53.588;10.010;2024-02-26T04:35:25;5.40;99.90
5280;DHT22;2663;53.588;10.010;2024-02-26T04:37:52;5.30;99.90
5280;DHT22;2663;53.588;10.010;2024-02-26T04:40:19;5.30;99.90
5280;DHT22;2663;53.588;10.010;2024-02-26T04:42:45;5.30;99.90
5280;DHT22;2663;53.588;10.010;2024-02-26T04:45:12;5.30;99.90
5280;DHT22;2663;53.588;10.010;2024-02-26T04:47:39;5.40;99.90
5280;DHT22;2663;53.588;10.010;2024-02-26T04:50:07;5.40;99.90
5280;DHT22;2663;53.588;10.010;2024-02-26T04:52:34;5.30;99.90
5280;DHT22;2663;53.588;10.010;2024-02-26T04:55:00;5.30;99.90
5280;DHT22;2663;53.588;10.010;2024-02-26T04:57:27;5.30;99.90
5280;DHT22;2663;53.588;10.010;2024-02-26T04:59:54;5.30;99.90
5280;DHT22;2663;53.588;10.010;2024-02-26T05:02:20;4.00;99.90
5280;DHT22;2663;53.588;10.010;2024-02-26T05:04:47;5.30;99.90
5280;DHT22;2663;53.588;10.010;2024-02-26T05:07:14;5.30;99.90
5280;DHT22;2663;53.588;10.010;2024-02-26T05:09:41;5.40;99.90
5280;DHT22;2663;53.588;10.010;2024-02-26T05:12:10;5.30;99.90
5280;DHT22;2663;53.588;10.010;2024-02-26T05:14:37;5.30;99.90
5280;DHT22;2663;53.588;10.010;2024-02-26T05:17:03;5.30;99.90
5280;DHT22;2663;53.588;10.010;2024-02-26T05:19:30;5.30;99.90
5280;DHT22;2663;53.588;10.010;2024-02-26T05:21:57;5.30;99.90
5280;DHT22;2663;53.588;10.010;2024-02-26T05:24:24;5.20;99.90
5280;DHT22;2663;53.588;10.010;2024-02-26T05:26:50;5.20;99.90
5280;DHT22;2663;53.588;10.010;2024-02-26T05:29:17;5.10;99.90
5280;DHT22;2663;53.588;10.010;2024-02-26T05:31:44;5.20;99.90
5280;DHT22;2663;53.588;10.010;2024-02-26T05:34:11;5.20;99.90
5280;DHT22;2663;53.588;10.010;2024-02-26T05:36:38;5.20;99.90
5280;DHT22;2663;53.588;10.010;2024-02-26T05:39:05;5.20;99.90
5280;DHT22;2663;53.588;10.010;2024-02-26T05:41:32;5.20;99.90
5280;DHT22;2663;53.588;10.010;2024-02-26T05:43:59;5.20;99.90
5280;DHT22;2663;53.588;10.010;2024-02-26T05:46:26;5.30;99.90
5280;DHT22;2663;53.588;10.010;2024-02-26T05:48:54;5.20;99.90
5280;DHT22;2663;53.588;10.010;2024-02-26T05:51:21;5.20;99.90
5280;DHT22;2663;53.588;10.010;2024-02-26T05:53:48;5.10;99.90
5280;DHT22;2663;53.588;10.010;2024-02-26T05:56:22;5.10;99.90
5280;DHT22;2663;53.588;10.010;2024-02-26T05:58:49;5.00;99.90
5280;DHT22;2663;53.588;10.010;2024-02-26T06:01:16;5.00;99.90
5280;DHT22;2663;53.588;10.010;2024-02-26T06:03:44;5.10;99.90
5280;DHT22;2663;53.588;10.010;2024-02-26T06:06:11;5.10;99.90
5280;DHT22;2663;53.588;10.010;2024-02-26T06:08:38;5.10;99.90
5280;DHT22;2663;53.588;10.010;2024-02-26T06:11:05;5.10;99.90
5280;DHT22;2663;53.588;10.010;2024-02-26T06:13:34;5.10;99.90
5280;DHT22;2663;53.588;10.010;2024-02-26T06:16:01;5.10;99.90
5280;DHT22;2663;53.588;10.010;2024-02-26T06:18:28;5.10;99.90
5280;DHT22;2663;53.588;10.010;2024-02-26T06:20:54;5.00;99.90
5280;DHT22;2663;53.588;10.010;2024-02-26T06:23:21;5.10;99.90
5280;DHT22;2663;53.588;10.010;2024-02-26T06:25:48;5.30;99.90
5280;DHT22;2663;53.588;10.010;2024-02-26T06:28:15;5.20;99.90
5280;DHT22;2663;53.588;10.010;2024-02-26T06:30:41;5.30;99.90
5280;DHT22;2663;53.588;10.010;2024-02-26T06:33:08;5.30;99.90
5280;DHT22;2663;53.588;10.010;2024-02-26T06:35:35;5.60;99.90
5280;DHT22;2663;53.588;10.010;2024-02-26T06:38:02;5.50;99.90
5280;DHT22;2663;53.588;10.010;2024-02-26T06:40:29;5.30;99.90
5280;DHT22;2663;53.588;10.010;2024-02-26T06:42:55;5.40;99.90
5280;DHT22;2663;53.588;10.010;2024-02-26T06:45:22;5.40;99.90
5280;DHT22;2663;53.588;10.010;2024-02-26T06:47:49;5.50;99.90
5280;DHT22;2663;53.588;10.010;2024-02-26T06:50:16;5.70;99.90
5280;DHT22;2663;53.588;10.010;2024-02-26T06:52:44;5.80;99.90
5280;DHT22;2663;53.588;10.010;2024-02-26T06:55:12;5.60;99.90
5280;DHT22;2663;53.588;10.010;2024-02-26T06:57:39;5.30;99.90
5280;DHT22;2663;53.588;10.010;2024-02-26T07:00:07;5.30;99.90
5280;DHT22;2663;53.588;10.010;2024-02-26T07:02:34;5.40;99.90
5280;DHT22;2663;53.588;10.010;2024-02-26T07:05:05;5.40;99.90
5280;DHT22;2663;53.588;10.010;2024-02-26T07:07:32;5.50;99.90
5280;DHT22;2663;53.588;10.010;2024-02-26T07:09:59;5.50;99.90
5280;DHT22;2663;53.588;10.010;2024-02-26T07:12:26;5.50;99.90
5280;DHT22;2663;53.588;10.010;2024-02-26T07:14:53;5.50;99.90
5280;DHT22;2663;53.588;10.010;2024-02-26T07:17:20;5.50;99.90
5280;DHT22;2663;53.588;10.010;2024-02-26T07:19:46;5.50;99.90
5280;DHT22;2663;53.588;10.010;2024-02-26T07:22:13;5.20;99.90
5280;DHT22;2663;53.588;10.010;2024-02-26T07:24:40;5.00;99.90
5280;DHT22;2663;53.588;10.010;2024-02-26T07:27:07;5.10;99.90
5280;DHT22;2663;53.588;10.010;2024-02-26T07:29:34;5.10;99.90
5280;DHT22;2663;53.588;10.010;2024-02-26T07:32:00;5.20;99.90
5280;DHT22;2663;53.588;10.010;2024-02-26T07:34:27;5.10;99.90
5280;DHT22;2663;53.588;10.010;2024-02-26T07:36:56;5.00;99.90
5280;DHT22;2663;53.588;10.010;2024-02-26T07:39:23;4.90;99.90
5280;DHT22;2663;53.588;10.010;2024-02-26T07:41:50;5.00;99.90
5280;DHT22;2663;53.588;10.010;2024-02-26T07:44:20;4.90;99.90
5280;DHT22;2663;53.588;10.010;2024-02-26T07:46:47;5.10;99.90
5280;DHT22;2663;53.588;10.010;2024-02-26T07:49:13;5.10;99.90
5280;DHT22;2663;53.588;10.010;2024-02-26T07:51:41;5.10;99.90
5280;DHT22;2663;53.588;10.010;2024-02-26T07:54:08;5.10;99.90
5280;DHT22;2663;53.588;10.010;2024-02-26T07:56:34;5.10;99.90
5280;DHT22;2663;53.588;10.010;2024-02-26T07:59:01;5.10;99.90
5280;DHT22;2663;53.588;10.010;2024-02-26T08:01:28;5.30;99.90
5280;DHT22;2663;53.588;10.010;2024-02-26T08:03:55;5.20;99.90
5280;DHT22;2663;53.588;10.010;2024-02-26T08:06:23;5.20;99.90
5280;DHT22;2663;53.588;10.010;2024-02-26T08:08:50;5.30;99.90
5280;DHT22;2663;53.588;10.010;2024-02-26T08:11:17;5.50;99.90
5280;DHT22;2663;53.588;10.010;2024-02-26T08:13:43;5.70;99.90
5280;DHT22;2663;53.588;10.010;2024-02-26T08:16:10;5.60;99.90
5280;DHT22;2663;53.588;10.010;2024-02-26T08:18:37;5.60;99.90
5280;DHT22;2663;53.588;10.010;2024-02-26T08:21:04;5.60;99.90
5280;DHT22;2663;53.588;10.010;2024-02-26T08:23:31;5.80;99.90
5280;DHT22;2663;53.588;10.010;2024-02-26T08:25:58;5.70;99.90
5280;DHT22;2663;53.588;10.010;2024-02-26T08:28:24;5.70;99.90
5280;DHT22;2663;53.588;10.010;2024-02-26T08:30:51;5.80;99.90
5280;DHT22;2663;53.588;10.010;2024-02-26T08:33:18;5.90;99.90
5280;DHT22;2663;53.588;10.010;2024-02-26T08:35:45;5.70;99.90
5280;DHT22;2663;53.588;10.010;2024-02-26T08:38:12;5.40;99.90
5280;DHT22;2663;53.588;10.010;2024-02-26T08:40:39;5.60;99.90
5280;DHT22;2663;53.588;10.010;2024-02-26T08:43:05;5.30;99.90
5280;DHT22;2663;53.588;10.010;2024-02-26T08:45:32;5.30;99.90
5280;DHT22;2663;53.588;10.010;2024-02-26T08:47:59;5.50;99.90
5280;DHT22;2663;53.588;10.010;2024-02-26T08:50:26;5.40;99.90
5280;DHT22;2663;53.588;10.010;2024-02-26T08:52:53;5.50;99.90
5280;DHT22;2663;53.588;10.010;2024-02-26T08:55:20;5.60;99.90
5280;DHT22;2663;53.588;10.010;2024-02-26T08:57:47;5.50;99.90
5280;DHT22;2663;53.588;10.010;2024-02-26T09:00:14;5.30;99.90
5280;DHT22;2663;53.588;10.010;2024-02-26T09:02:44;5.40;99.90
5280;DHT22;2663;53.588;10.010;2024-02-26T09:05:11;5.20;99.90
5280;DHT22;2663;53.588;10.010;2024-02-26T09:07:38;5.20;99.90
5280;DHT22;2663;53.588;10.010;2024-02-26T09:10:05;5.10;99.90
5280;DHT22;2663;53.588;10.010;2024-02-26T09:12:32;5.20;99.90
5280;DHT22;2663;53.588;10.010;2024-02-26T09:14:59;5.40;99.90
5280;DHT22;2663;53.588;10.010;2024-02-26T09:17:26;5.40;99.90
5280;DHT22;2663;53.588;10.010;2024-02-26T09:19:53;5.50;99.90
5280;DHT22;2663;53.588;10.010;2024-02-26T09:22:20;6.00;99.90
5280;DHT22;2663;53.588;10.010;2024-02-26T09:24:46;6.60;99.90
5280;DHT22;2663;53.588;10.010;2024-02-26T09:27:13;7.00;99.90
5280;DHT22;2663;53.588;10.010;2024-02-26T09:29:40;6.80;99.90
5280;DHT22;2663;53.588;10.010;2024-02-26T09:32:06;6.40;99.90
5280;DHT22;2663;53.588;10.010;2024-02-26T09:34:33;6.30;99.90
5280;DHT22;2663;53.588;10.010;2024-02-26T09:37:01;6.30;99.90
5280;DHT22;2663;53.588;10.010;2024-02-26T09:39:41;6.20;99.90
5280;DHT22;2663;53.588;10.010;2024-02-26T09:42:09;6.00;99.90
5280;DHT22;2663;53.588;10.010;2024-02-26T09:44:40;6.00;99.90
5280;DHT22;2663;53.588;10.010;2024-02-26T09:47:10;6.10;99.90
5280;DHT22;2663;53.588;10.010;2024-02-26T09:49:38;6.00;99.90
5280;DHT22;2663;53.588;10.010;2024-02-26T09:52:06;6.10;99.90
5280;DHT22;2663;53.588;10.010;2024-02-26T09:54:35;6.30;99.90
5280;DHT22;2663;53.588;10.010;2024-02-26T09:57:03;6.30;99.90
5280;DHT22;2663;53.588;10.010;2024-02-26T09:59:39;6.20;99.90
5280;DHT22;2663;53.588;10.010;2024-02-26T10:02:14;6.20;99.90
5280;DHT22;2663;53.588;10.010;2024-02-26T10:04:42;6.00;99.90
5280;DHT22;2663;53.588;10.010;2024-02-26T10:07:16;5.90;99.90
5280;DHT22;2663;53.588;10.010;2024-02-26T10:09:43;6.00;99.90
5280;DHT22;2663;53.588;10.010;2024-02-26T10:12:11;6.10;99.90
5280;DHT22;2663;53.588;10.010;2024-02-26T10:14:38;6.30;99.90
5280;DHT22;2663;53.588;10.010;2024-02-26T10:17:08;6.40;99.90
5280;DHT22;2663;53.588;10.010;2024-02-26T10:19:35;6.30;99.90
5280;DHT22;2663;53.588;10.010;2024-02-26T10:22:05;6.40;99.90
5280;DHT22;2663;53.588;10.010;2024-02-26T10:24:32;6.40;99.90
5280;DHT22;2663;53.588;10.010;2024-02-26T10:27:02;6.40;99.90
5280;DHT22;2663;53.588;10.010;2024-02-26T10:29:29;6.50;99.90
5280;DHT22;2663;53.588;10.010;2024-02-26T10:31:56;6.30;99.90
5280;DHT22;2663;53.588;10.010;2024-02-26T10:34:23;6.40;99.90
5280;DHT22;2663;53.588;10.010;2024-02-26T10:36:50;6.50;99.90
5280;DHT22;2663;53.588;10.010;2024-02-26T10:39:20;6.50;99.90
5280;DHT22;2663;53.588;10.010;2024-02-26T10:41:48;6.50;99.90
5280;DHT22;2663;53.588;10.010;2024-02-26T10:44:14;6.70;99.90
5280;DHT22;2663;53.588;10.010;2024-02-26T10:46:47;6.80;99.90
5280;DHT22;2663;53.588;10.010;2024-02-26T10:49:16;6.80;99.90
5280;DHT22;2663;53.588;10.010;2024-02-26T10:51:54;6.90;99.90
5280;DHT22;2663;53.588;10.010;2024-02-26T10:54:23;7.00;99.90
5280;DHT22;2663;53.588;10.010;2024-02-26T10:56:52;6.90;99.90
5280;DHT22;2663;53.588;10.010;2024-02-26T10:59:20;6.90;99.90
5280;DHT22;2663;53.588;10.010;2024-02-26T11:01:48;7.00;99.90
5280;DHT22;2663;53.588;10.010;2024-02-26T11:04:17;7.20;99.90
5280;DHT22;2663;53.588;10.010;2024-02-26T11:06:47;7.30;99.90
5280;DHT22;2663;53.588;10.010;2024-02-26T11:09:16;7.50;99.90
5280;DHT22;2663;53.588;10.010;2024-02-26T11:11:44;7.60;99.90
5280;DHT22;2663;53.588;10.010;2024-02-26T11:14:12;7.50;99.90
5280;DHT22;2663;53.588;10.010;2024-02-26T11:16:40;7.40;99.90
5280;DHT22;2663;53.588;10.010;2024-02-26T11:19:09;7.50;99.90
5280;DHT22;2663;53.588;10.010;2024-02-26T11:21:37;9.40;99.90
5280;DHT22;2663;53.588;10.010;2024-02-26T11:24:12;6.40;99.90
5280;DHT22;2663;53.588;10.010;2024-02-26T11:26:43;7.60;99.90
5280;DHT22;2663;53.588;10.010;2024-02-26T11:29:16;7.70;99.90
5280;DHT22;2663;53.588;10.010;2024-02-26T11:31:45;7.90;99.90
5280;DHT22;2663;53.588;10.010;2024-02-26T11:34:12;7.90;99.90
5280;DHT22;2663;53.588;10.010;2024-02-26T11:36:40;8.00;99.90
5280;DHT22;2663;53.588;10.010;2024-02-26T11:39:11;8.20;99.90
5280;DHT22;2663;53.588;10.010;2024-02-26T11:41:39;8.20;99.90
5280;DHT22;2663;53.588;10.010;2024-02-26T11:44:06;8.20;99.90
5280;DHT22;2663;53.588;10.010;2024-02-26T11:46:39;8.10;99.90
5280;DHT22;2663;53.588;10.010;2024-02-26T11:51:56;7.80;99.90
5280;DHT22;2663;53.588;10.010;2024-02-26T11:57:29;8.00;99.90
5280;DHT22;2663;53.588;10.010;2024-02-26T12:00:11;8.10;99.90
5280;DHT22;2663;53.588;10.010;2024-02-26T12:02:52;8.20;99.90
5280;DHT22;2663;53.588;10.010;2024-02-26T12:05:26;8.10;99.90
5280;DHT22;2663;53.588;10.010;2024-02-26T12:08:03;8.00;99.90
5280;DHT22;2663;53.588;10.010;2024-02-26T12:10:39;8.20;99.90
5280;DHT22;2663;53.588;10.010;2024-02-26T12:13:14;8.20;99.90
5280;DHT22;2663;53.588;10.010;2024-02-26T12:18:18;8.40;99.90
5280;DHT22;2663;53.588;10.010;2024-02-26T12:20:47;8.30;99.90
5280;DHT22;2663;53.588;10.010;2024-02-26T12:23:17;8.30;99.90
5280;DHT22;2663;53.588;10.010;2024-02-26T12:25:44;8.40;99.90
5280;DHT22;2663;53.588;10.010;2024-02-26T12:28:10;8.40;99.90
5280;DHT22;2663;53.588;10.010;2024-02-26T12:30:37;8.50;99.90
5280;DHT22;2663;53.588;10.010;2024-02-26T12:33:04;8.50;99.90
5280;DHT22;2663;53.588;10.010;2024-02-26T12:35:31;8.30;99.90
5280;DHT22;2663;53.588;10.010;2024-02-26T12:37:59;8.30;99.90
5280;DHT22;2663;53.588;10.010;2024-02-26T12:40:26;8.30;99.90
5280;DHT22;2663;53.588;10.010;2024-02-26T12:42:54;8.40;99.90
5280;DHT22;2663;53.588;10.010;2024-02-26T12:45:22;8.40;99.90
5280;DHT22;2663;53.588;10.010;2024-02-26T12:47:49;8.50;99.90
5280;DHT22;2663;53.588;10.010;2024-02-26T12:50:16;8.40;99.90
5280;DHT22;2663;53.588;10.010;2024-02-26T12:52:45;8.40;99.90
5280;DHT22;2663;53.588;10.010;2024-02-26T12:55:20;8.50;99.90
5280;DHT22;2663;53.588;10.010;2024-02-26T12:57:48;8.50;99.90
5280;DHT22;2663;53.588;10.010;2024-02-26T13:00:18;8.50;99.90
5280;DHT22;2663;53.588;10.010;2024-02-26T13:02:47;8.40;99.90
5280;DHT22;2663;53.588;10.010;2024-02-26T13:05:14;8.50;99.90
5280;DHT22;2663;53.588;10.010;2024-02-26T13:07:46;8.20;99.90
5280;DHT22;2663;53.588;10.010;2024-02-26T13:10:17;8.30;99.90
5280;DHT22;2663;53.588;10.010;2024-02-26T13:12:45;8.40;99.90
5280;DHT22;2663;53.588;10.010;2024-02-26T13:15:18;8.50;99.90
5280;DHT22;2663;53.588;10.010;2024-02-26T13:17:45;8.40;99.90
5280;DHT22;2663;53.588;10.010;2024-02-26T13:20:13;8.30;99.90
5280;DHT22;2663;53.588;10.010;2024-02-26T13:22:41;8.10;99.90
5280;DHT22;2663;53.588;10.010;2024-02-26T13:25:08;8.20;99.90
5280;DHT22;2663;53.588;10.010;2024-02-26T13:27:35;8.00;99.90
5280;DHT22;2663;53.588;10.010;2024-02-26T13:30:12;8.10;99.90
5280;DHT22;2663;53.588;10.010;2024-02-26T13:32:40;8.20;99.90
5280;DHT22;2663;53.588;10.010;2024-02-26T13:35:11;8.20;99.90
5280;DHT22;2663;53.588;10.010;2024-02-26T13:37:39;8.30;99.90
5280;DHT22;2663;53.588;10.010;2024-02-26T13:40:10;8.30;99.90
5280;DHT22;2663;53.588;10.010;2024-02-26T13:42:38;8.50;99.90
5280;DHT22;2663;53.588;10.010;2024-02-26T13:45:05;8.60;99.90
5280;DHT22;2663;53.588;10.010;2024-02-26T13:47:35;8.60;99.90
5280;DHT22;2663;53.588;10.010;2024-02-26T13:50:03;8.50;99.90
5280;DHT22;2663;53.588;10.010;2024-02-26T13:52:30;8.40;99.90
5280;DHT22;2663;53.588;10.010;2024-02-26T13:54:59;8.50;99.90
5280;DHT22;2663;53.588;10.010;2024-02-26T13:57:26;8.70;99.90
5280;DHT22;2663;53.588;10.010;2024-02-26T13:59:53;8.80;99.90
5280;DHT22;2663;53.588;10.010;2024-02-26T14:02:20;8.80;99.90
5280;DHT22;2663;53.588;10.010;2024-02-26T14:04:47;8.90;99.90
5280;DHT22;2663;53.588;10.010;2024-02-26T14:07:14;9.00;99.90
5280;DHT22;2663;53.588;10.010;2024-02-26T14:09:41;8.90;99.90
5280;DHT22;2663;53.588;10.010;2024-02-26T14:12:16;8.70;99.90
5280;DHT22;2663;53.588;10.010;2024-02-26T14:14:45;8.80;99.90
5280;DHT22;2663;53.588;10.010;2024-02-26T14:17:15;8.80;99.90
5280;DHT22;2663;53.588;10.010;2024-02-26T14:19:42;9.00;99.90
5280;DHT22;2663;53.588;10.010;2024-02-26T14:22:14;9.10;99.90
5280;DHT22;2663;53.588;10.010;2024-02-26T14:24:44;9.00;99.90
5280;DHT22;2663;53.588;10.010;2024-02-26T14:27:13;8.70;99.90
5280;DHT22;2663;53.588;10.010;2024-02-26T14:29:43;8.50;99.90
5280;DHT22;2663;53.588;10.010;2024-02-26T14:32:10;8.40;99.90
5280;DHT22;2663;53.588;10.010;2024-02-26T14:34:37;8.50;99.90
5280;DHT22;2663;53.588;10.010;2024-02-26T14:37:04;8.40;99.90
5280;DHT22;2663;53.588;10.010;2024-02-26T14:39:32;8.40;99.90
5280;DHT22;2663;53.588;10.010;2024-02-26T14:41:59;8.30;99.90
5280;DHT22;2663;53.588;10.010;2024-02-26T14:44:26;7.50;99.90
5280;DHT22;2663;53.588;10.010;2024-02-26T14:46:53;8.40;99.90
5280;DHT22;2663;53.588;10.010;2024-02-26T14:49:20;8.40;99.90
5280;DHT22;2663;53.588;10.010;2024-02-26T14:51:47;8.50;99.90
5280;DHT22;2663;53.588;10.010;2024-02-26T14:54:14;8.30;99.90
5280;DHT22;2663;53.588;10.010;2024-02-26T14:56:41;8.20;99.90
5280;DHT22;2663;53.588;10.010;2024-02-26T14:59:07;8.30;99.90
5280;DHT22;2663;53.588;10.010;2024-02-26T15:01:34;8.40;99.90
5280;DHT22;2663;53.588;10.010;2024-02-26T15:04:01;8.30;99.90
5280;DHT22;2663;53.588;10.010;2024-02-26T15:06:28;8.20;99.90
5280;DHT22;2663;53.588;10.010;2024-02-26T15:08:55;8.10;99.90
5280;DHT22;2663;53.588;10.010;2024-02-26T15:11:22;8.10;99.90
5280;DHT22;2663;53.588;10.010;2024-02-26T15:13:49;8.00;99.90
5280;DHT22;2663;53.588;10.010;2024-02-26T15:16:19;8.10;99.90
5280;DHT22;2663;53.588;10.010;2024-02-26T15:18:47;8.00;99.90
5280;DHT22;2663;53.588;10.010;2024-02-26T15:21:14;7.90;99.90
5280;DHT22;2663;53.588;10.010;2024-02-26T15:23:44;8.00;99.90
5280;DHT22;2663;53.588;10.010;2024-02-26T15:26:30;8.10;99.90
5280;DHT22;2663;53.588;10.010;2024-02-26T15:28:57;8.10;99.90
5280;DHT22;2663;53.588;10.010;2024-02-26T15:31:23;8.00;99.90
5280;DHT22;2663;53.588;10.010;2024-02-26T15:33:50;8.00;99.90
5280;DHT22;2663;53.588;10.010;2024-02-26T15:36:17;8.00;99.90
5280;DHT22;2663;53.588;10.010;2024-02-26T15:38:44;8.00;99.90
5280;DHT22;2663;53.588;10.010;2024-02-26T15:41:14;8.10;99.90
5280;DHT22;2663;53.588;10.010;2024-02-26T15:43:40;7.20;99.90
5280;DHT22;2663;53.588;10.010;2024-02-26T15:46:07;7.90;99.90
5280;DHT22;2663;53.588;10.010;2024-02-26T15:48:36;8.00;99.90
5280;DHT22;2663;53.588;10.010;2024-02-26T15:51:04;8.00;99.90
5280;DHT22;2663;53.588;10.010;2024-02-26T15:53:31;8.00;99.90
5280;DHT22;2663;53.588;10.010;2024-02-26T15:55:57;8.00;99.90
5280;DHT22;2663;53.588;10.010;2024-02-26T15:58:25;7.90;99.90
5280;DHT22;2663;53.588;10.010;2024-02-26T16:00:52;7.90;99.90
5280;DHT22;2663;53.588;10.010;2024-02-26T16:03:19;7.90;99.90
5280;DHT22;2663;53.588;10.010;2024-02-26T16:05:46;8.00;99.90
5280;DHT22;2663;53.588;10.010;2024-02-26T16:08:21;7.90;99.90
5280;DHT22;2663;53.588;10.010;2024-02-26T16:10:48;7.80;99.90
5280;DHT22;2663;53.588;10.010;2024-02-26T16:13:16;7.70;99.90